createdAt,value
2017-06-30T00:00:58.915Z,18.00
2017-06-30T00:03:27.208Z,17.90
2017-06-30T00:05:55.475Z,17.80
2017-06-30T00:08:23.781Z,17.80
2017-06-30T00:10:52.043Z,17.90
2017-06-30T00:13:20.314Z,17.90
2017-06-30T00:15:48.599Z,17.90
2017-06-30T00:18:16.866Z,18.10
2017-06-30T00:20:45.160Z,18.10
2017-06-30T00:23:13.423Z,17.90
2017-06-30T00:25:41.703Z,17.80
2017-06-30T00:28:09.978Z,17.90
2017-06-30T00:30:38.266Z,17.90
2017-06-30T00:33:06.535Z,17.90
2017-06-30T00:35:34.823Z,17.80
2017-06-30T00:38:03.087Z,17.80
2017-06-30T00:40:31.391Z,17.80
2017-06-30T00:42:59.660Z,17.80
2017-06-30T00:45:27.931Z,17.80
2017-06-30T00:47:56.226Z,17.80
2017-06-30T00:50:25.260Z,17.80
2017-06-30T00:52:53.583Z,17.80
2017-06-30T00:55:21.847Z,17.70
2017-06-30T00:57:50.131Z,17.70
2017-06-30T01:03:18.606Z,17.60
2017-06-30T01:05:46.862Z,17.70
2017-06-30T01:08:15.910Z,17.70
2017-06-30T01:10:44.185Z,17.70
2017-06-30T01:13:12.470Z,17.70
2017-06-30T01:15:40.736Z,17.80
2017-06-30T01:18:08.994Z,17.70
2017-06-30T01:20:37.280Z,17.70
2017-06-30T01:23:05.544Z,17.70
2017-06-30T01:25:33.831Z,17.80
2017-06-30T01:28:02.092Z,17.80
2017-06-30T01:30:30.375Z,17.70
2017-06-30T01:32:58.644Z,17.70
2017-06-30T01:35:26.928Z,17.60
2017-06-30T01:37:55.213Z,17.60
2017-06-30T01:40:23.490Z,17.60
2017-06-30T01:42:51.762Z,17.50
2017-06-30T01:45:20.051Z,17.50
2017-06-30T01:47:48.328Z,17.50
2017-06-30T01:50:16.602Z,17.40
2017-06-30T01:52:44.875Z,17.30
2017-06-30T01:55:13.155Z,17.40
2017-06-30T01:57:41.430Z,17.40
2017-06-30T02:00:09.699Z,17.60
2017-06-30T02:02:37.984Z,17.40
2017-06-30T02:05:06.243Z,17.40
2017-06-30T02:07:34.531Z,17.50
2017-06-30T02:10:02.793Z,17.40
2017-06-30T02:12:31.074Z,17.30
2017-06-30T02:14:59.338Z,17.30
2017-06-30T02:17:28.390Z,17.30
2017-06-30T02:19:56.662Z,17.30
2017-06-30T02:22:24.975Z,17.40
2017-06-30T02:24:53.244Z,17.40
2017-06-30T02:27:21.520Z,17.50
2017-06-30T02:29:49.796Z,17.40
2017-06-30T02:32:18.063Z,17.40
2017-06-30T02:34:46.351Z,17.50
2017-06-30T02:37:14.616Z,17.50
2017-06-30T02:39:42.940Z,17.50
2017-06-30T02:42:11.203Z,17.60
2017-06-30T02:44:40.259Z,17.70
2017-06-30T02:47:08.521Z,17.70
2017-06-30T02:49:36.795Z,17.70
2017-06-30T02:52:05.058Z,17.70
2017-06-30T02:54:33.346Z,17.80
2017-06-30T02:57:01.629Z,17.60
2017-06-30T02:59:29.908Z,17.50
2017-06-30T03:01:58.167Z,17.50
2017-06-30T03:04:26.472Z,17.50
2017-06-30T03:06:54.738Z,17.40
2017-06-30T03:09:22.995Z,17.50
2017-06-30T03:11:51.286Z,17.50
2017-06-30T03:14:19.555Z,17.50
2017-06-30T03:16:47.839Z,17.40
2017-06-30T03:19:16.104Z,17.40
2017-06-30T03:21:44.384Z,17.40
2017-06-30T03:24:12.722Z,17.30
2017-06-30T03:26:40.995Z,17.30
2017-06-30T03:29:09.263Z,17.40
2017-06-30T03:31:37.564Z,17.50
2017-06-30T03:34:05.824Z,17.50
2017-06-30T03:36:34.126Z,17.50
2017-06-30T03:39:02.395Z,17.50
2017-06-30T03:41:31.435Z,17.60
2017-06-30T03:43:59.719Z,17.50
2017-06-30T03:46:27.981Z,17.50
2017-06-30T03:48:56.268Z,17.50
2017-06-30T03:51:24.535Z,17.50
2017-06-30T03:53:52.822Z,17.40
2017-06-30T03:56:21.085Z,17.40
2017-06-30T03:58:49.374Z,17.50
2017-06-30T04:01:17.632Z,17.40
2017-06-30T04:03:45.923Z,17.40
2017-06-30T04:06:14.187Z,17.50
2017-06-30T04:08:42.471Z,17.50
2017-06-30T04:11:10.751Z,17.50
2017-06-30T04:13:39.010Z,17.60
2017-06-30T04:16:07.311Z,17.40
2017-06-30T04:18:35.571Z,17.50
2017-06-30T04:21:03.860Z,17.60
2017-06-30T04:23:32.140Z,17.60
2017-06-30T04:26:00.442Z,17.60
2017-06-30T04:28:28.701Z,17.70
2017-06-30T04:30:57.007Z,17.70
2017-06-30T04:33:25.271Z,17.90
2017-06-30T04:35:53.538Z,17.90
2017-06-30T04:38:21.832Z,17.90
2017-06-30T04:40:50.091Z,17.90
2017-06-30T04:43:18.379Z,17.90
2017-06-30T04:45:46.642Z,17.90
2017-06-30T04:48:14.931Z,17.80
2017-06-30T04:50:43.196Z,17.80
2017-06-30T04:53:11.479Z,18.00
2017-06-30T04:55:39.744Z,18.00
2017-06-30T04:58:08.057Z,18.10
2017-06-30T05:00:36.323Z,18.10
2017-06-30T05:03:04.620Z,18.20
2017-06-30T05:05:32.912Z,18.10
2017-06-30T05:08:01.969Z,18.30
2017-06-30T05:10:30.253Z,18.30
2017-06-30T05:12:58.532Z,18.40
2017-06-30T05:15:26.828Z,18.50
2017-06-30T05:17:55.083Z,18.50
2017-06-30T05:20:23.364Z,18.50
2017-06-30T05:22:51.641Z,18.50
2017-06-30T05:25:19.930Z,18.50
2017-06-30T05:27:48.203Z,18.40
2017-06-30T05:30:16.465Z,18.40
2017-06-30T05:32:44.755Z,18.40
2017-06-30T05:35:13.028Z,18.40
2017-06-30T05:37:41.313Z,18.40
2017-06-30T05:40:09.580Z,18.40
2017-06-30T05:42:37.921Z,18.50
2017-06-30T05:45:06.189Z,18.60
2017-06-30T05:47:34.494Z,18.70
2017-06-30T05:50:02.776Z,18.80
2017-06-30T05:52:31.040Z,19.00
2017-06-30T05:54:59.327Z,19.10
2017-06-30T05:57:27.597Z,19.20
2017-06-30T05:59:55.880Z,19.20
2017-06-30T06:02:24.156Z,19.40
2017-06-30T06:04:52.436Z,19.50
2017-06-30T06:07:20.699Z,19.70
2017-06-30T06:09:48.989Z,19.80
2017-06-30T06:12:17.263Z,19.90
2017-06-30T06:14:45.554Z,20.10
2017-06-30T06:17:13.819Z,20.20
2017-06-30T06:19:42.087Z,20.20
2017-06-30T06:22:10.383Z,20.30
2017-06-30T06:24:38.647Z,20.40
2017-06-30T06:27:06.927Z,20.50
2017-06-30T06:29:35.201Z,20.70
2017-06-30T06:32:03.488Z,20.70
2017-06-30T06:34:31.756Z,20.80
2017-06-30T06:37:00.081Z,20.90
2017-06-30T06:39:29.122Z,21.40
2017-06-30T06:41:57.400Z,21.40
2017-06-30T06:44:25.687Z,21.70
2017-06-30T06:46:53.954Z,22.10
2017-06-30T06:49:22.246Z,21.90
2017-06-30T06:51:50.511Z,22.00
2017-06-30T06:54:18.804Z,22.40
2017-06-30T06:56:47.075Z,22.70
2017-06-30T06:59:15.363Z,23.00
2017-06-30T07:01:43.637Z,23.20
2017-06-30T07:04:11.907Z,23.50
2017-06-30T07:06:40.200Z,23.80
2017-06-30T07:09:08.492Z,23.90
2017-06-30T07:11:36.771Z,24.10
2017-06-30T07:14:05.816Z,23.80
2017-06-30T07:16:34.103Z,23.80
2017-06-30T07:19:02.382Z,23.50
2017-06-30T07:21:30.668Z,23.50
2017-06-30T07:23:58.931Z,23.50
2017-06-30T07:26:27.238Z,23.20
2017-06-30T07:28:55.506Z,23.00
2017-06-30T07:31:23.791Z,23.10
2017-06-30T07:33:52.068Z,23.40
2017-06-30T07:36:20.336Z,23.70
2017-06-30T07:38:48.620Z,23.90
2017-06-30T07:41:16.886Z,23.90
2017-06-30T07:43:45.183Z,23.90
2017-06-30T07:46:13.456Z,23.50
2017-06-30T07:48:41.736Z,23.30
2017-06-30T07:51:10.008Z,23.10
2017-06-30T07:53:38.295Z,22.90
2017-06-30T07:56:07.330Z,22.50
2017-06-30T07:58:35.612Z,22.50
2017-06-30T08:01:03.901Z,22.50
2017-06-30T08:03:32.778Z,22.60
2017-06-30T08:06:01.056Z,22.60
2017-06-30T08:08:29.323Z,22.80
2017-06-30T08:10:57.607Z,22.90
2017-06-30T08:13:25.880Z,23.10
2017-06-30T08:15:54.167Z,23.10
2017-06-30T08:18:22.443Z,23.20
2017-06-30T08:20:50.731Z,23.40
2017-06-30T08:23:18.999Z,23.60
2017-06-30T08:25:47.271Z,23.90
2017-06-30T08:28:15.565Z,23.90
2017-06-30T08:30:43.833Z,23.70
2017-06-30T08:33:12.124Z,23.60
2017-06-30T08:35:40.396Z,23.50
2017-06-30T08:38:08.687Z,23.70
2017-06-30T08:40:36.955Z,23.60
2017-06-30T08:43:05.246Z,23.70
2017-06-30T08:45:33.509Z,23.70
2017-06-30T08:48:01.816Z,23.70
2017-06-30T08:50:30.090Z,23.60
2017-06-30T08:52:58.446Z,23.50
2017-06-30T08:55:26.743Z,23.70
2017-06-30T08:57:55.054Z,23.60
2017-06-30T09:00:23.301Z,23.60
2017-06-30T09:02:51.571Z,23.60
2017-06-30T09:05:19.855Z,23.70
2017-06-30T09:07:48.127Z,23.80
2017-06-30T09:10:16.412Z,23.70
2017-06-30T09:12:44.680Z,23.60
2017-06-30T09:15:12.983Z,23.70
2017-06-30T09:17:42.020Z,23.90
2017-06-30T09:20:10.319Z,23.80
2017-06-30T09:22:38.597Z,23.90
2017-06-30T09:25:06.872Z,23.90
2017-06-30T09:27:35.159Z,24.00
2017-06-30T09:30:03.420Z,24.00
2017-06-30T09:32:31.711Z,23.90
2017-06-30T09:34:59.988Z,23.80
2017-06-30T09:37:28.299Z,23.80
2017-06-30T09:39:57.335Z,23.50
2017-06-30T09:42:25.621Z,23.50
2017-06-30T09:44:53.892Z,23.50
2017-06-30T09:47:22.176Z,23.60
2017-06-30T09:49:50.439Z,23.90
2017-06-30T09:52:19.073Z,24.00
2017-06-30T09:54:48.227Z,24.00
2017-06-30T09:57:16.731Z,23.90
2017-06-30T09:59:45.092Z,23.90
2017-06-30T10:02:13.351Z,23.70
2017-06-30T10:04:41.652Z,23.50
2017-06-30T10:07:09.940Z,23.50
2017-06-30T10:09:38.234Z,23.60
2017-06-30T10:12:06.504Z,23.80
2017-06-30T10:14:34.787Z,24.00
2017-06-30T10:17:03.062Z,24.00
2017-06-30T10:19:31.343Z,24.00
2017-06-30T10:21:59.615Z,24.10
2017-06-30T10:24:27.919Z,24.10
2017-06-30T10:26:56.968Z,24.30
2017-06-30T10:29:25.236Z,24.30
2017-06-30T10:31:53.520Z,24.30
2017-06-30T10:34:21.800Z,24.50
2017-06-30T10:36:50.092Z,24.60
2017-06-30T10:39:18.356Z,24.80
2017-06-30T10:41:46.643Z,24.90
2017-06-30T10:44:14.920Z,24.70
2017-06-30T10:46:43.215Z,24.60
2017-06-30T10:49:12.292Z,24.90
2017-06-30T10:51:40.571Z,24.90
2017-06-30T10:54:08.852Z,24.80
2017-06-30T10:56:37.159Z,24.80
2017-06-30T10:59:06.207Z,24.80
2017-06-30T11:01:34.487Z,24.80
2017-06-30T11:04:02.775Z,25.00
2017-06-30T11:06:31.044Z,25.10
2017-06-30T11:08:59.338Z,25.00
2017-06-30T11:11:27.620Z,25.00
2017-06-30T11:13:55.911Z,25.00
2017-06-30T11:16:24.953Z,24.90
2017-06-30T11:18:53.249Z,24.90
2017-06-30T11:21:21.609Z,24.80
2017-06-30T11:23:49.900Z,24.80
2017-06-30T11:26:18.162Z,24.90
2017-06-30T11:28:46.460Z,25.10
2017-06-30T11:31:14.749Z,25.30
2017-06-30T11:33:43.140Z,25.40
2017-06-30T11:36:11.410Z,25.60
2017-06-30T11:38:39.671Z,25.50
2017-06-30T11:41:08.667Z,25.60
2017-06-30T11:43:36.945Z,25.50
2017-06-30T11:46:05.247Z,25.50
2017-06-30T11:48:34.291Z,25.00
2017-06-30T11:51:02.578Z,25.00
2017-06-30T11:53:30.839Z,25.10
2017-06-30T11:55:59.133Z,25.10
2017-06-30T11:58:27.398Z,25.00
2017-06-30T12:00:55.690Z,25.00
2017-06-30T12:03:23.961Z,25.00
2017-06-30T12:05:52.267Z,24.80
2017-06-30T12:08:20.544Z,24.80
2017-06-30T12:10:48.811Z,24.80
2017-06-30T12:13:17.095Z,24.70
2017-06-30T12:15:46.160Z,24.90
2017-06-30T12:18:14.451Z,24.90
2017-06-30T12:20:42.727Z,24.90
2017-06-30T12:23:11.112Z,25.00
2017-06-30T12:25:39.395Z,25.10
2017-06-30T12:28:07.691Z,25.10
2017-06-30T12:30:36.737Z,25.10
2017-06-30T12:33:05.116Z,25.10
2017-06-30T12:35:33.395Z,25.10
2017-06-30T12:38:01.712Z,25.00
2017-06-30T12:40:29.982Z,24.90
2017-06-30T12:42:58.260Z,25.00
2017-06-30T12:45:26.551Z,25.10
2017-06-30T12:47:55.606Z,25.30
2017-06-30T12:50:23.897Z,25.40
2017-06-30T12:52:52.172Z,25.40
2017-06-30T12:55:20.466Z,25.30
2017-06-30T12:57:48.732Z,25.30
2017-06-30T13:00:17.028Z,25.30
2017-06-30T13:02:45.304Z,25.40
2017-06-30T13:05:13.595Z,25.40
2017-06-30T13:07:42.633Z,25.50
2017-06-30T13:10:10.939Z,25.50
2017-06-30T13:12:39.207Z,25.50
2017-06-30T13:15:07.487Z,25.60
2017-06-30T13:17:35.818Z,25.50
2017-06-30T13:20:04.080Z,25.50
2017-06-30T13:22:33.136Z,25.30
2017-06-30T13:25:01.436Z,25.30
2017-06-30T13:27:29.723Z,25.40
2017-06-30T13:29:59.126Z,25.50
2017-06-30T13:32:28.180Z,25.60
2017-06-30T13:34:56.460Z,25.60
2017-06-30T13:37:25.715Z,25.60
2017-06-30T13:39:53.987Z,25.50
2017-06-30T13:42:22.296Z,25.30
2017-06-30T13:44:50.571Z,25.20
2017-06-30T13:47:18.867Z,25.20
2017-06-30T13:49:47.148Z,25.30
2017-06-30T13:52:15.419Z,25.30
2017-06-30T13:54:43.725Z,25.30
2017-06-30T13:57:12.001Z,25.30
2017-06-30T13:59:40.292Z,25.30
2017-06-30T14:02:09.328Z,25.40
2017-06-30T14:04:37.614Z,25.40
2017-06-30T14:07:05.892Z,25.40
2017-06-30T14:09:34.191Z,25.40
2017-06-30T14:12:02.471Z,25.50
2017-06-30T14:14:30.754Z,25.50
2017-06-30T14:16:59.032Z,25.50
2017-06-30T14:19:27.341Z,25.60
2017-06-30T14:21:55.643Z,25.60
2017-06-30T14:24:23.923Z,25.60
2017-06-30T14:26:52.223Z,25.60
2017-06-30T14:29:20.499Z,25.60
2017-06-30T14:31:48.797Z,25.60
2017-06-30T14:34:17.091Z,25.70
2017-06-30T14:36:45.378Z,25.70
2017-06-30T14:39:14.416Z,25.80
2017-06-30T14:41:42.714Z,25.80
2017-06-30T14:44:10.998Z,25.80
2017-06-30T14:46:39.289Z,25.80
2017-06-30T14:49:08.347Z,26.00
2017-06-30T14:51:36.645Z,25.90
2017-06-30T14:54:04.926Z,26.00
2017-06-30T14:56:33.203Z,25.90
2017-06-30T14:59:01.492Z,25.90
2017-06-30T15:01:29.773Z,25.70
2017-06-30T15:03:58.063Z,25.80
2017-06-30T15:06:26.353Z,25.70
2017-06-30T15:08:54.640Z,25.60
2017-06-30T15:11:22.925Z,25.70
2017-06-30T15:13:51.216Z,25.60
2017-06-30T15:16:19.483Z,25.60
2017-06-30T15:18:47.826Z,25.60
2017-06-30T15:21:16.855Z,25.50
2017-06-30T15:23:45.188Z,25.50
2017-06-30T15:26:14.236Z,25.60
2017-06-30T15:28:42.506Z,25.60
2017-06-30T15:31:10.811Z,25.50
2017-06-30T15:33:39.090Z,25.50
2017-06-30T15:36:07.376Z,25.50
2017-06-30T15:38:35.644Z,25.50
2017-06-30T15:41:03.934Z,25.50
2017-06-30T15:43:32.214Z,25.60
2017-06-30T15:46:00.499Z,25.50
2017-06-30T15:48:29.543Z,25.30
2017-06-30T15:50:57.857Z,25.40
2017-06-30T15:53:26.137Z,25.30
2017-06-30T15:55:54.417Z,25.40
2017-06-30T15:58:22.704Z,25.30
2017-06-30T16:00:50.983Z,25.30
2017-06-30T16:03:19.276Z,25.40
2017-06-30T16:05:48.310Z,25.40
2017-06-30T16:08:16.607Z,25.40
2017-06-30T16:10:44.884Z,25.40
2017-06-30T16:13:13.172Z,25.40
2017-06-30T16:15:41.459Z,25.50
2017-06-30T16:18:09.773Z,25.50
2017-06-30T16:20:38.047Z,25.40
2017-06-30T16:23:06.320Z,25.40
2017-06-30T16:25:34.612Z,25.40
2017-06-30T16:28:02.886Z,25.40
2017-06-30T16:30:31.191Z,25.40
2017-06-30T16:32:59.474Z,25.40
2017-06-30T16:35:27.779Z,25.50
2017-06-30T16:37:56.827Z,25.40
2017-06-30T16:40:25.128Z,25.40
2017-06-30T16:42:53.411Z,25.40
2017-06-30T16:45:21.729Z,25.30
2017-06-30T16:47:50.019Z,25.40
2017-06-30T16:50:19.214Z,25.40
2017-06-30T16:52:47.503Z,25.30
2017-06-30T16:55:15.780Z,25.10
2017-06-30T16:57:44.128Z,25.00
2017-06-30T17:00:13.180Z,24.70
2017-06-30T17:02:41.471Z,24.70
2017-06-30T17:05:09.755Z,24.60
2017-06-30T17:07:38.047Z,24.60
2017-06-30T17:10:06.319Z,24.60
2017-06-30T17:12:34.619Z,24.40
2017-06-30T17:15:02.895Z,24.40
2017-06-30T17:17:31.928Z,24.30
2017-06-30T17:20:00.220Z,24.30
2017-06-30T17:22:28.487Z,24.30
2017-06-30T17:24:56.776Z,24.40
2017-06-30T17:27:25.051Z,24.30
2017-06-30T17:29:53.341Z,24.20
2017-06-30T17:32:21.640Z,24.00
2017-06-30T17:34:49.919Z,23.90
2017-06-30T17:37:18.966Z,23.80
2017-06-30T17:39:47.242Z,23.80
2017-06-30T17:42:15.535Z,23.80
2017-06-30T17:44:43.803Z,23.70
2017-06-30T17:47:12.100Z,23.80
2017-06-30T17:49:40.376Z,23.80
2017-06-30T17:52:08.668Z,23.70
2017-06-30T17:54:36.939Z,23.70
2017-06-30T17:57:05.239Z,23.70
2017-06-30T17:59:34.272Z,23.50
2017-06-30T18:02:02.559Z,23.50
2017-06-30T18:04:30.831Z,23.40
2017-06-30T18:06:59.130Z,23.40
2017-06-30T18:09:27.409Z,23.30
2017-06-30T18:11:55.685Z,23.30
2017-06-30T18:14:23.988Z,23.30
2017-06-30T18:16:53.019Z,23.40
2017-06-30T18:19:21.316Z,23.30
2017-06-30T18:21:49.587Z,23.30
2017-06-30T18:24:17.876Z,23.30
2017-06-30T18:26:46.156Z,23.20
2017-06-30T18:29:14.448Z,23.20
2017-06-30T18:31:42.721Z,23.20
2017-06-30T18:34:11.012Z,23.20
2017-06-30T18:36:39.276Z,23.00
2017-06-30T18:39:07.561Z,23.00
2017-06-30T18:41:35.851Z,23.00
2017-06-30T18:44:04.127Z,22.90
2017-06-30T18:46:32.426Z,22.80
2017-06-30T18:49:01.461Z,22.80
2017-06-30T18:51:29.744Z,22.80
2017-06-30T18:53:58.018Z,22.80
2017-06-30T18:56:26.300Z,22.80
2017-06-30T18:58:54.576Z,22.80
2017-06-30T19:01:22.895Z,22.60
2017-06-30T19:03:51.954Z,22.40
2017-06-30T19:06:20.219Z,22.50
2017-06-30T19:08:48.520Z,22.40
2017-06-30T19:11:16.790Z,22.20
2017-06-30T19:13:45.078Z,22.30
2017-06-30T19:16:13.343Z,22.30
2017-06-30T19:18:41.663Z,22.20
2017-06-30T19:21:10.704Z,22.20
2017-06-30T19:23:39.001Z,22.20
2017-06-30T19:26:07.272Z,22.10
2017-06-30T19:28:35.567Z,22.00
2017-06-30T19:31:04.623Z,21.80
2017-06-30T19:33:33.748Z,21.80
2017-06-30T19:36:02.051Z,21.70
2017-06-30T19:38:30.357Z,21.70
2017-06-30T19:40:58.640Z,21.70
2017-06-30T19:43:26.961Z,21.70
2017-06-30T19:45:55.263Z,21.70
2017-06-30T19:48:23.532Z,21.60
2017-06-30T19:50:52.630Z,21.60
2017-06-30T19:53:20.959Z,21.60
2017-06-30T19:55:49.255Z,21.60
2017-06-30T19:58:17.536Z,21.60
2017-06-30T20:00:45.819Z,21.50
2017-06-30T20:03:14.083Z,21.40
2017-06-30T20:05:42.365Z,21.50
2017-06-30T20:08:10.647Z,21.40
2017-06-30T20:10:38.929Z,21.50
2017-06-30T20:13:07.217Z,21.40
2017-06-30T20:15:35.491Z,21.40
2017-06-30T20:18:03.782Z,21.30
2017-06-30T20:20:32.820Z,21.30
2017-06-30T20:23:01.115Z,21.30
2017-06-30T20:25:29.387Z,21.30
2017-06-30T20:27:57.671Z,21.30
2017-06-30T20:30:25.948Z,21.30
2017-06-30T20:32:54.252Z,21.30
2017-06-30T20:35:22.518Z,21.10
2017-06-30T20:37:50.781Z,21.10
2017-06-30T20:40:19.068Z,21.00
2017-06-30T20:42:47.331Z,20.80
2017-06-30T20:45:15.624Z,20.70
2017-06-30T20:47:43.885Z,20.70
2017-06-30T20:50:12.178Z,20.60
2017-06-30T20:52:40.464Z,20.50
2017-06-30T20:55:08.743Z,20.40
2017-06-30T20:57:37.016Z,20.30
2017-06-30T21:00:05.292Z,20.30
2017-06-30T21:02:33.571Z,20.30
2017-06-30T21:05:01.864Z,20.20
2017-06-30T21:07:30.891Z,20.10
2017-06-30T21:09:59.189Z,20.10
2017-06-30T21:12:27.454Z,20.10
2017-06-30T21:14:55.726Z,20.10
2017-06-30T21:17:24.037Z,20.10
2017-06-30T21:19:52.302Z,20.10
2017-06-30T21:22:20.594Z,20.00
2017-06-30T21:24:48.892Z,20.00
2017-06-30T21:27:17.952Z,19.80
2017-06-30T21:29:46.228Z,19.80
2017-06-30T21:32:14.584Z,19.80
2017-06-30T21:34:42.945Z,19.80
2017-06-30T21:37:11.267Z,19.80
2017-06-30T21:39:39.687Z,19.80
2017-06-30T21:42:08.028Z,19.80
2017-06-30T21:44:36.296Z,19.70
2017-06-30T21:47:04.601Z,19.80
2017-06-30T21:49:33.015Z,19.80
2017-06-30T21:52:01.459Z,19.80
2017-06-30T21:54:29.825Z,19.80
2017-06-30T21:56:58.146Z,19.70
2017-06-30T21:59:27.301Z,19.60
2017-06-30T22:01:55.704Z,19.60
2017-06-30T22:04:24.248Z,19.60
2017-06-30T22:06:52.533Z,19.50
2017-06-30T22:09:20.833Z,19.50
2017-06-30T22:11:49.095Z,19.50
2017-06-30T22:14:17.412Z,19.50
2017-06-30T22:16:45.700Z,19.40
2017-06-30T22:19:13.985Z,19.50
2017-06-30T22:21:45.554Z,19.50
2017-06-30T22:24:15.943Z,19.60
2017-06-30T22:26:44.559Z,19.60
2017-06-30T22:29:12.817Z,19.60
2017-06-30T22:31:41.117Z,19.60
2017-06-30T22:34:09.391Z,19.70
2017-06-30T22:36:37.690Z,19.70
2017-06-30T22:39:05.970Z,19.70
2017-06-30T22:41:34.252Z,19.70
2017-06-30T22:44:02.529Z,19.70
2017-06-30T22:46:30.824Z,19.60
2017-06-30T22:48:59.128Z,19.60
2017-06-30T22:51:27.432Z,19.50
2017-06-30T22:53:55.715Z,19.50
2017-06-30T22:56:23.988Z,19.30
2017-06-30T22:58:52.277Z,19.40
2017-06-30T23:01:20.565Z,19.30
2017-06-30T23:03:48.851Z,19.30
2017-06-30T23:06:17.136Z,19.40
2017-06-30T23:08:45.447Z,19.40
2017-06-30T23:11:14.481Z,19.30
2017-06-30T23:13:42.780Z,19.30
2017-06-30T23:16:11.058Z,19.30
2017-06-30T23:18:39.390Z,19.30
2017-06-30T23:21:08.429Z,19.30
2017-06-30T23:23:36.704Z,19.20
2017-06-30T23:26:04.990Z,19.30
2017-06-30T23:28:33.262Z,19.20
2017-06-30T23:31:01.556Z,19.20
2017-06-30T23:33:29.856Z,19.20
2017-06-30T23:35:58.924Z,19.10
2017-06-30T23:38:27.200Z,19.00
2017-06-30T23:40:55.491Z,19.10
2017-06-30T23:43:23.773Z,19.00
2017-06-30T23:45:52.833Z,18.90
2017-06-30T23:48:21.128Z,18.90
2017-06-30T23:50:49.437Z,18.90
2017-06-30T23:53:17.718Z,18.80
2017-06-30T23:55:45.993Z,18.90
2017-06-30T23:58:15.048Z,18.90
